sensor_id;sensor_type;location;lat;lon;timestamp;temperature;humidity
25937;DHT22;13733;51.178;4.450;2023-06-26T00:01:07;24.60;94.00
25937;DHT22;13733;51.178;4.450;2023-06-26T00:03:34;24.60;93.90
25937;DHT22;13733;51.178;4.450;2023-06-26T00:06:00;24.60;94.00
25937;DHT22;13733;51.178;4.450;2023-06-26T00:08:27;24.60;93.50
25937;DHT22;13733;51.178;4.450;2023-06-26T00:10:52;24.40;93.70
25937;DHT22;13733;51.178;4.450;2023-06-26T00:13:19;24.30;94.20
25937;DHT22;13733;51.178;4.450;2023-06-26T00:15:44;24.20;94.50
25937;DHT22;13733;51.178;4.450;2023-06-26T00:18:10;24.20;94.90
25937;DHT22;13733;51.178;4.450;2023-06-26T00:20:37;24.00;96.00
25937;DHT22;13733;51.178;4.450;2023-06-26T00:23:03;23.90;96.60
25937;DHT22;13733;51.178;4.450;2023-06-26T00:25:34;23.90;97.30
25937;DHT22;13733;51.178;4.450;2023-06-26T00:28:00;23.80;97.70
25937;DHT22;13733;51.178;4.450;2023-06-26T00:30:25;23.80;98.40
25937;DHT22;13733;51.178;4.450;2023-06-26T00:32:51;23.90;98.40
25937;DHT22;13733;51.178;4.450;2023-06-26T00:35:17;23.80;98.50
25937;DHT22;13733;51.178;4.450;2023-06-26T00:37:44;23.90;98.40
25937;DHT22;13733;51.178;4.450;2023-06-26T00:40:10;23.90;98.90
25937;DHT22;13733;51.178;4.450;2023-06-26T00:42:35;23.80;99.20
25937;DHT22;13733;51.178;4.450;2023-06-26T00:45:01;23.80;99.70
25937;DHT22;13733;51.178;4.450;2023-06-26T00:47:27;23.70;99.90
25937;DHT22;13733;51.178;4.450;2023-06-26T00:49:54;23.60;99.80
25937;DHT22;13733;51.178;4.450;2023-06-26T00:52:21;23.50;99.80
25937;DHT22;13733;51.178;4.450;2023-06-26T00:54:47;23.50;99.70
25937;DHT22;13733;51.178;4.450;2023-06-26T00:57:13;23.40;99.70
25937;DHT22;13733;51.178;4.450;2023-06-26T00:59:39;23.40;99.90
25937;DHT22;13733;51.178;4.450;2023-06-26T01:02:05;23.20;99.90
25937;DHT22;13733;51.178;4.450;2023-06-26T01:04:31;23.10;99.90
25937;DHT22;13733;51.178;4.450;2023-06-26T01:06:59;23.10;99.90
25937;DHT22;13733;51.178;4.450;2023-06-26T01:09:25;23.20;99.90
25937;DHT22;13733;51.178;4.450;2023-06-26T01:11:51;23.10;99.90
25937;DHT22;13733;51.178;4.450;2023-06-26T01:14:17;23.10;99.90
25937;DHT22;13733;51.178;4.450;2023-06-26T01:16:45;23.00;99.90
25937;DHT22;13733;51.178;4.450;2023-06-26T01:19:27;22.90;99.90
25937;DHT22;13733;51.178;4.450;2023-06-26T01:22:12;22.90;99.90
25937;DHT22;13733;51.178;4.450;2023-06-26T01:25:11;22.90;99.90
25937;DHT22;13733;51.178;4.450;2023-06-26T01:27:39;22.80;99.90
25937;DHT22;13733;51.178;4.450;2023-06-26T01:30:06;22.60;99.90
25937;DHT22;13733;51.178;4.450;2023-06-26T01:32:34;22.70;99.90
25937;DHT22;13733;51.178;4.450;2023-06-26T01:35:01;22.60;99.90
25937;DHT22;13733;51.178;4.450;2023-06-26T01:37:29;22.60;99.90
25937;DHT22;13733;51.178;4.450;2023-06-26T01:39:54;22.60;99.90
25937;DHT22;13733;51.178;4.450;2023-06-26T01:42:20;22.70;99.90
25937;DHT22;13733;51.178;4.450;2023-06-26T01:44:46;22.80;99.90
25937;DHT22;13733;51.178;4.450;2023-06-26T01:47:16;22.60;99.90
25937;DHT22;13733;51.178;4.450;2023-06-26T01:52:41;22.50;99.90
25937;DHT22;13733;51.178;4.450;2023-06-26T01:55:17;22.40;99.90
25937;DHT22;13733;51.178;4.450;2023-06-26T01:57:46;22.30;99.90
25937;DHT22;13733;51.178;4.450;2023-06-26T02:00:16;22.20;99.90
25937;DHT22;13733;51.178;4.450;2023-06-26T02:02:44;22.20;99.90
25937;DHT22;13733;51.178;4.450;2023-06-26T02:05:13;22.20;99.90
25937;DHT22;13733;51.178;4.450;2023-06-26T02:07:39;22.30;99.90
25937;DHT22;13733;51.178;4.450;2023-06-26T02:10:06;22.30;99.90
25937;DHT22;13733;51.178;4.450;2023-06-26T02:12:32;22.30;99.90
25937;DHT22;13733;51.178;4.450;2023-06-26T02:14:58;22.30;99.90
25937;DHT22;13733;51.178;4.450;2023-06-26T02:17:24;22.10;99.90
25937;DHT22;13733;51.178;4.450;2023-06-26T02:19:53;22.20;99.90
25937;DHT22;13733;51.178;4.450;2023-06-26T02:22:19;22.10;99.90
25937;DHT22;13733;51.178;4.450;2023-06-26T02:24:46;22.00;99.90
25937;DHT22;13733;51.178;4.450;2023-06-26T02:27:12;22.00;99.90
25937;DHT22;13733;51.178;4.450;2023-06-26T02:29:39;22.00;99.90
25937;DHT22;13733;51.178;4.450;2023-06-26T02:32:07;22.00;99.90
25937;DHT22;13733;51.178;4.450;2023-06-26T02:34:34;22.00;99.90
25937;DHT22;13733;51.178;4.450;2023-06-26T02:37:00;22.00;99.90
25937;DHT22;13733;51.178;4.450;2023-06-26T02:39:27;22.00;99.90
25937;DHT22;13733;51.178;4.450;2023-06-26T02:41:53;21.80;99.90
25937;DHT22;13733;51.178;4.450;2023-06-26T02:44:21;21.80;99.90
25937;DHT22;13733;51.178;4.450;2023-06-26T02:46:47;21.90;99.90
25937;DHT22;13733;51.178;4.450;2023-06-26T02:49:13;21.80;99.90
25937;DHT22;13733;51.178;4.450;2023-06-26T02:51:38;21.70;99.90
25937;DHT22;13733;51.178;4.450;2023-06-26T02:54:11;21.70;99.90
25937;DHT22;13733;51.178;4.450;2023-06-26T02:56:38;21.60;99.90
25937;DHT22;13733;51.178;4.450;2023-06-26T02:59:04;21.50;99.90
25937;DHT22;13733;51.178;4.450;2023-06-26T03:01:30;21.30;99.90
25937;DHT22;13733;51.178;4.450;2023-06-26T03:03:56;21.30;99.90
25937;DHT22;13733;51.178;4.450;2023-06-26T03:06:24;21.30;99.90
25937;DHT22;13733;51.178;4.450;2023-06-26T03:08:49;21.10;99.90
25937;DHT22;13733;51.178;4.450;2023-06-26T03:11:15;21.00;99.90
25937;DHT22;13733;51.178;4.450;2023-06-26T03:13:41;20.90;99.90
25937;DHT22;13733;51.178;4.450;2023-06-26T03:16:07;20.80;99.90
25937;DHT22;13733;51.178;4.450;2023-06-26T03:18:33;20.80;99.90
25937;DHT22;13733;51.178;4.450;2023-06-26T03:20:58;20.80;99.90
25937;DHT22;13733;51.178;4.450;2023-06-26T03:23:25;20.80;99.90
25937;DHT22;13733;51.178;4.450;2023-06-26T03:25:51;20.80;99.90
25937;DHT22;13733;51.178;4.450;2023-06-26T03:28:29;20.70;99.90
25937;DHT22;13733;51.178;4.450;2023-06-26T03:30:56;20.60;99.90
25937;DHT22;13733;51.178;4.450;2023-06-26T03:33:22;20.60;99.90
25937;DHT22;13733;51.178;4.450;2023-06-26T03:35:48;20.50;99.90
25937;DHT22;13733;51.178;4.450;2023-06-26T03:38:14;20.40;99.90
25937;DHT22;13733;51.178;4.450;2023-06-26T03:40:42;20.30;99.90
25937;DHT22;13733;51.178;4.450;2023-06-26T03:43:08;20.40;99.90
25937;DHT22;13733;51.178;4.450;2023-06-26T03:45:44;20.40;99.90
25937;DHT22;13733;51.178;4.450;2023-06-26T03:48:10;20.10;99.90
25937;DHT22;13733;51.178;4.450;2023-06-26T03:50:36;20.10;99.90
25937;DHT22;13733;51.178;4.450;2023-06-26T03:53:02;20.10;99.90
25937;DHT22;13733;51.178;4.450;2023-06-26T03:55:28;20.10;99.90
25937;DHT22;13733;51.178;4.450;2023-06-26T03:57:53;20.10;99.90
25937;DHT22;13733;51.178;4.450;2023-06-26T04:00:19;20.10;99.90
25937;DHT22;13733;51.178;4.450;2023-06-26T04:02:45;20.10;99.90
25937;DHT22;13733;51.178;4.450;2023-06-26T04:05:12;20.00;99.90
25937;DHT22;13733;51.178;4.450;2023-06-26T04:07:38;20.10;99.90
25937;DHT22;13733;51.178;4.450;2023-06-26T04:10:05;20.20;99.90
25937;DHT22;13733;51.178;4.450;2023-06-26T04:12:32;20.20;99.90
25937;DHT22;13733;51.178;4.450;2023-06-26T04:14:58;20.10;99.90
25937;DHT22;13733;51.178;4.450;2023-06-26T04:17:24;20.10;99.90
25937;DHT22;13733;51.178;4.450;2023-06-26T04:19:49;20.00;99.90
25937;DHT22;13733;51.178;4.450;2023-06-26T04:22:15;19.90;99.90
25937;DHT22;13733;51.178;4.450;2023-06-26T04:24:41;19.80;99.90
25937;DHT22;13733;51.178;4.450;2023-06-26T04:27:06;19.80;99.90
25937;DHT22;13733;51.178;4.450;2023-06-26T04:29:32;19.90;99.90
25937;DHT22;13733;51.178;4.450;2023-06-26T04:31:58;19.90;99.90
25937;DHT22;13733;51.178;4.450;2023-06-26T04:34:27;19.90;99.90
25937;DHT22;13733;51.178;4.450;2023-06-26T04:36:54;19.90;99.90
25937;DHT22;13733;51.178;4.450;2023-06-26T04:39:20;19.70;99.90
25937;DHT22;13733;51.178;4.450;2023-06-26T04:41:46;19.80;99.90
25937;DHT22;13733;51.178;4.450;2023-06-26T04:44:11;19.80;99.90
25937;DHT22;13733;51.178;4.450;2023-06-26T04:46:37;19.60;99.90
25937;DHT22;13733;51.178;4.450;2023-06-26T04:49:08;19.50;99.90
25937;DHT22;13733;51.178;4.450;2023-06-26T04:51:34;19.60;99.90
25937;DHT22;13733;51.178;4.450;2023-06-26T04:54:10;19.70;99.90
25937;DHT22;13733;51.178;4.450;2023-06-26T04:56:36;19.60;99.90
25937;DHT22;13733;51.178;4.450;2023-06-26T04:59:03;19.70;99.90
25937;DHT22;13733;51.178;4.450;2023-06-26T05:01:29;19.60;99.90
25937;DHT22;13733;51.178;4.450;2023-06-26T05:03:58;19.60;99.90
25937;DHT22;13733;51.178;4.450;2023-06-26T05:06:24;19.70;99.90
25937;DHT22;13733;51.178;4.450;2023-06-26T05:08:50;19.70;99.90
25937;DHT22;13733;51.178;4.450;2023-06-26T05:11:16;19.70;99.90
25937;DHT22;13733;51.178;4.450;2023-06-26T05:13:42;19.70;99.90
25937;DHT22;13733;51.178;4.450;2023-06-26T05:16:09;19.80;99.90
25937;DHT22;13733;51.178;4.450;2023-06-26T05:18:36;19.80;99.90
25937;DHT22;13733;51.178;4.450;2023-06-26T05:21:02;19.80;99.90
25937;DHT22;13733;51.178;4.450;2023-06-26T05:23:31;19.70;99.90
25937;DHT22;13733;51.178;4.450;2023-06-26T05:25:57;19.70;99.90
25937;DHT22;13733;51.178;4.450;2023-06-26T05:28:24;19.70;99.90
25937;DHT22;13733;51.178;4.450;2023-06-26T05:30:53;19.80;99.90
25937;DHT22;13733;51.178;4.450;2023-06-26T05:33:19;19.70;99.90
25937;DHT22;13733;51.178;4.450;2023-06-26T05:35:48;19.80;99.90
25937;DHT22;13733;51.178;4.450;2023-06-26T05:38:14;19.90;99.90
25937;DHT22;13733;51.178;4.450;2023-06-26T05:40:41;19.90;99.90
25937;DHT22;13733;51.178;4.450;2023-06-26T05:43:07;19.70;99.90
25937;DHT22;13733;51.178;4.450;2023-06-26T05:45:33;19.70;99.90
25937;DHT22;13733;51.178;4.450;2023-06-26T05:47:59;19.80;99.90
25937;DHT22;13733;51.178;4.450;2023-06-26T05:50:25;19.70;99.90
25937;DHT22;13733;51.178;4.450;2023-06-26T05:52:51;19.90;99.90
25937;DHT22;13733;51.178;4.450;2023-06-26T05:55:18;19.90;99.90
25937;DHT22;13733;51.178;4.450;2023-06-26T05:57:45;19.90;99.90
25937;DHT22;13733;51.178;4.450;2023-06-26T06:00:12;20.10;99.90
25937;DHT22;13733;51.178;4.450;2023-06-26T06:02:42;20.10;99.90
25937;DHT22;13733;51.178;4.450;2023-06-26T06:05:08;20.20;99.90
25937;DHT22;13733;51.178;4.450;2023-06-26T06:07:34;20.20;99.90
25937;DHT22;13733;51.178;4.450;2023-06-26T06:10:01;20.30;99.90
25937;DHT22;13733;51.178;4.450;2023-06-26T06:12:28;20.30;99.90
25937;DHT22;13733;51.178;4.450;2023-06-26T06:14:56;20.30;99.90
25937;DHT22;13733;51.178;4.450;2023-06-26T06:17:22;20.30;99.90
25937;DHT22;13733;51.178;4.450;2023-06-26T06:19:49;20.40;99.90
25937;DHT22;13733;51.178;4.450;2023-06-26T06:22:15;20.40;99.90
25937;DHT22;13733;51.178;4.450;2023-06-26T06:24:43;20.30;99.90
25937;DHT22;13733;51.178;4.450;2023-06-26T06:27:09;20.20;99.90
25937;DHT22;13733;51.178;4.450;2023-06-26T06:29:35;20.00;99.90
25937;DHT22;13733;51.178;4.450;2023-06-26T06:32:01;20.20;99.90
25937;DHT22;13733;51.178;4.450;2023-06-26T06:34:26;20.60;99.90
25937;DHT22;13733;51.178;4.450;2023-06-26T06:36:52;20.50;99.90
25937;DHT22;13733;51.178;4.450;2023-06-26T06:39:18;20.50;99.90
25937;DHT22;13733;51.178;4.450;2023-06-26T06:41:44;20.70;99.90
25937;DHT22;13733;51.178;4.450;2023-06-26T06:44:12;20.80;99.90
25937;DHT22;13733;51.178;4.450;2023-06-26T06:46:37;20.90;99.90
25937;DHT22;13733;51.178;4.450;2023-06-26T06:49:03;20.90;99.90
25937;DHT22;13733;51.178;4.450;2023-06-26T06:51:29;20.80;99.90
25937;DHT22;13733;51.178;4.450;2023-06-26T06:53:55;20.80;99.90
25937;DHT22;13733;51.178;4.450;2023-06-26T06:56:21;20.70;99.90
25937;DHT22;13733;51.178;4.450;2023-06-26T06:58:46;20.60;99.90
25937;DHT22;13733;51.178;4.450;2023-06-26T07:01:13;20.40;99.90
25937;DHT22;13733;51.178;4.450;2023-06-26T07:03:39;20.40;99.90
25937;DHT22;13733;51.178;4.450;2023-06-26T07:06:05;20.50;99.90
25937;DHT22;13733;51.178;4.450;2023-06-26T07:08:31;20.70;99.90
25937;DHT22;13733;51.178;4.450;2023-06-26T07:10:57;20.80;99.90
25937;DHT22;13733;51.178;4.450;2023-06-26T07:13:23;20.90;99.90
25937;DHT22;13733;51.178;4.450;2023-06-26T07:15:48;21.00;99.90
25937;DHT22;13733;51.178;4.450;2023-06-26T07:18:14;21.20;99.90
25937;DHT22;13733;51.178;4.450;2023-06-26T07:20:40;21.40;99.90
25937;DHT22;13733;51.178;4.450;2023-06-26T07:23:08;21.40;99.90
25937;DHT22;13733;51.178;4.450;2023-06-26T07:25:34;21.30;99.90
25937;DHT22;13733;51.178;4.450;2023-06-26T07:27:59;21.00;99.90
25937;DHT22;13733;51.178;4.450;2023-06-26T07:30:25;21.00;99.90
25937;DHT22;13733;51.178;4.450;2023-06-26T07:32:51;21.20;99.90
25937;DHT22;13733;51.178;4.450;2023-06-26T07:35:17;21.20;99.90
25937;DHT22;13733;51.178;4.450;2023-06-26T07:37:43;21.00;99.90
25937;DHT22;13733;51.178;4.450;2023-06-26T07:40:09;21.00;99.90
25937;DHT22;13733;51.178;4.450;2023-06-26T07:42:35;21.10;99.90
25937;DHT22;13733;51.178;4.450;2023-06-26T07:45:01;21.00;99.90
25937;DHT22;13733;51.178;4.450;2023-06-26T07:47:27;21.10;99.90
25937;DHT22;13733;51.178;4.450;2023-06-26T07:49:54;21.30;99.90
25937;DHT22;13733;51.178;4.450;2023-06-26T07:52:20;21.00;99.90
25937;DHT22;13733;51.178;4.450;2023-06-26T07:54:46;20.90;99.90
25937;DHT22;13733;51.178;4.450;2023-06-26T07:57:12;21.10;99.90
25937;DHT22;13733;51.178;4.450;2023-06-26T07:59:38;21.20;99.90
25937;DHT22;13733;51.178;4.450;2023-06-26T08:02:04;21.30;99.90
25937;DHT22;13733;51.178;4.450;2023-06-26T08:04:30;21.40;99.90
25937;DHT22;13733;51.178;4.450;2023-06-26T08:06:58;21.50;99.90
25937;DHT22;13733;51.178;4.450;2023-06-26T08:09:26;21.50;99.90
25937;DHT22;13733;51.178;4.450;2023-06-26T08:11:52;21.40;99.90
25937;DHT22;13733;51.178;4.450;2023-06-26T08:14:18;21.10;99.90
25937;DHT22;13733;51.178;4.450;2023-06-26T08:16:44;21.20;99.90
25937;DHT22;13733;51.178;4.450;2023-06-26T08:19:14;21.30;99.90
25937;DHT22;13733;51.178;4.450;2023-06-26T08:21:41;21.40;99.90
25937;DHT22;13733;51.178;4.450;2023-06-26T08:24:08;21.50;99.90
25937;DHT22;13733;51.178;4.450;2023-06-26T08:26:35;21.60;99.90
25937;DHT22;13733;51.178;4.450;2023-06-26T08:29:01;21.50;99.90
25937;DHT22;13733;51.178;4.450;2023-06-26T08:31:33;21.60;99.90
25937;DHT22;13733;51.178;4.450;2023-06-26T08:34:00;21.80;99.90
25937;DHT22;13733;51.178;4.450;2023-06-26T08:36:26;21.90;99.90
25937;DHT22;13733;51.178;4.450;2023-06-26T08:38:52;22.00;99.90
25937;DHT22;13733;51.178;4.450;2023-06-26T08:41:18;22.00;99.90
25937;DHT22;13733;51.178;4.450;2023-06-26T08:43:43;22.00;99.90
25937;DHT22;13733;51.178;4.450;2023-06-26T08:46:09;21.90;99.90
25937;DHT22;13733;51.178;4.450;2023-06-26T08:48:35;21.90;99.90
25937;DHT22;13733;51.178;4.450;2023-06-26T08:51:12;22.00;99.90
25937;DHT22;13733;51.178;4.450;2023-06-26T08:53:59;21.80;99.90
25937;DHT22;13733;51.178;4.450;2023-06-26T08:56:32;21.70;99.90
25937;DHT22;13733;51.178;4.450;2023-06-26T08:58:58;21.90;99.90
25937;DHT22;13733;51.178;4.450;2023-06-26T09:01:24;21.90;99.90
25937;DHT22;13733;51.178;4.450;2023-06-26T09:03:51;22.10;99.90
25937;DHT22;13733;51.178;4.450;2023-06-26T09:06:17;22.00;99.90
25937;DHT22;13733;51.178;4.450;2023-06-26T09:08:44;21.90;99.90
25937;DHT22;13733;51.178;4.450;2023-06-26T09:11:09;22.00;99.90
25937;DHT22;13733;51.178;4.450;2023-06-26T09:13:35;22.20;99.90
25937;DHT22;13733;51.178;4.450;2023-06-26T09:16:08;22.20;99.90
25937;DHT22;13733;51.178;4.450;2023-06-26T09:18:34;22.40;99.90
25937;DHT22;13733;51.178;4.450;2023-06-26T09:21:00;22.40;99.90
25937;DHT22;13733;51.178;4.450;2023-06-26T09:23:31;22.20;99.90
25937;DHT22;13733;51.178;4.450;2023-06-26T09:25:57;22.40;99.90
25937;DHT22;13733;51.178;4.450;2023-06-26T09:28:22;22.60;99.90
25937;DHT22;13733;51.178;4.450;2023-06-26T09:30:48;22.70;99.90
25937;DHT22;13733;51.178;4.450;2023-06-26T09:33:17;22.90;99.90
25937;DHT22;13733;51.178;4.450;2023-06-26T09:35:44;22.60;99.80
25937;DHT22;13733;51.178;4.450;2023-06-26T09:38:11;22.60;99.90
25937;DHT22;13733;51.178;4.450;2023-06-26T09:40:37;22.70;98.90
25937;DHT22;13733;51.178;4.450;2023-06-26T09:43:09;22.90;98.60
25937;DHT22;13733;51.178;4.450;2023-06-26T09:45:36;22.90;99.00
25937;DHT22;13733;51.178;4.450;2023-06-26T09:48:03;23.00;99.50
25937;DHT22;13733;51.178;4.450;2023-06-26T09:50:29;23.20;99.70
25937;DHT22;13733;51.178;4.450;2023-06-26T09:52:57;23.30;98.00
25937;DHT22;13733;51.178;4.450;2023-06-26T09:55:24;23.30;98.10
25937;DHT22;13733;51.178;4.450;2023-06-26T09:57:50;23.00;97.50
25937;DHT22;13733;51.178;4.450;2023-06-26T10:00:17;23.00;94.30
25937;DHT22;13733;51.178;4.450;2023-06-26T10:02:44;22.90;94.30
25937;DHT22;13733;51.178;4.450;2023-06-26T10:05:10;22.80;93.70
25937;DHT22;13733;51.178;4.450;2023-06-26T10:07:37;23.10;94.50
25937;DHT22;13733;51.178;4.450;2023-06-26T10:10:05;23.50;94.60
25937;DHT22;13733;51.178;4.450;2023-06-26T10:12:33;23.60;95.30
25937;DHT22;13733;51.178;4.450;2023-06-26T10:15:02;23.30;95.60
25937;DHT22;13733;51.178;4.450;2023-06-26T10:17:34;23.30;96.10
25937;DHT22;13733;51.178;4.450;2023-06-26T10:20:03;23.40;95.10
25937;DHT22;13733;51.178;4.450;2023-06-26T10:22:31;23.40;93.80
25937;DHT22;13733;51.178;4.450;2023-06-26T10:24:59;23.50;93.50
25937;DHT22;13733;51.178;4.450;2023-06-26T10:27:29;23.70;88.80
25937;DHT22;13733;51.178;4.450;2023-06-26T10:30:02;23.70;88.80
25937;DHT22;13733;51.178;4.450;2023-06-26T10:32:29;23.80;90.30
25937;DHT22;13733;51.178;4.450;2023-06-26T10:34:55;23.90;90.30
25937;DHT22;13733;51.178;4.450;2023-06-26T10:37:26;23.80;90.40
25937;DHT22;13733;51.178;4.450;2023-06-26T10:40:06;24.10;84.60
25937;DHT22;13733;51.178;4.450;2023-06-26T10:42:36;24.10;86.20
25937;DHT22;13733;51.178;4.450;2023-06-26T10:45:19;24.20;85.00
25937;DHT22;13733;51.178;4.450;2023-06-26T10:47:49;24.10;87.20
25937;DHT22;13733;51.178;4.450;2023-06-26T10:50:33;24.40;85.40
25937;DHT22;13733;51.178;4.450;2023-06-26T10:55:39;24.90;83.60
25937;DHT22;13733;51.178;4.450;2023-06-26T11:01:18;24.70;78.20
25937;DHT22;13733;51.178;4.450;2023-06-26T11:03:47;24.60;78.10
25937;DHT22;13733;51.178;4.450;2023-06-26T11:06:18;24.30;78.30
25937;DHT22;13733;51.178;4.450;2023-06-26T11:08:52;24.90;80.10
25937;DHT22;13733;51.178;4.450;2023-06-26T11:14:30;26.60;77.10
25937;DHT22;13733;51.178;4.450;2023-06-26T11:16:57;26.80;67.80
25937;DHT22;13733;51.178;4.450;2023-06-26T11:19:25;26.80;65.70
25937;DHT22;13733;51.178;4.450;2023-06-26T11:21:52;26.90;64.90
25937;DHT22;13733;51.178;4.450;2023-06-26T11:24:23;26.50;67.80
25937;DHT22;13733;51.178;4.450;2023-06-26T11:26:49;26.30;66.80
25937;DHT22;13733;51.178;4.450;2023-06-26T11:29:15;26.00;65.00
25937;DHT22;13733;51.178;4.450;2023-06-26T11:31:42;25.40;69.20
25937;DHT22;13733;51.178;4.450;2023-06-26T11:34:12;25.60;68.90
25937;DHT22;13733;51.178;4.450;2023-06-26T11:36:39;26.30;65.00
25937;DHT22;13733;51.178;4.450;2023-06-26T11:39:08;27.00;67.40
25937;DHT22;13733;51.178;4.450;2023-06-26T11:41:35;27.70;67.00
25937;DHT22;13733;51.178;4.450;2023-06-26T11:44:09;26.90;66.10
25937;DHT22;13733;51.178;4.450;2023-06-26T11:46:36;27.00;69.50
25937;DHT22;13733;51.178;4.450;2023-06-26T11:49:08;27.60;65.50
25937;DHT22;13733;51.178;4.450;2023-06-26T11:51:35;26.90;64.90
25937;DHT22;13733;51.178;4.450;2023-06-26T11:54:03;26.40;66.20
25937;DHT22;13733;51.178;4.450;2023-06-26T11:56:30;25.80;66.20
25937;DHT22;13733;51.178;4.450;2023-06-26T11:59:06;25.70;66.80
25937;DHT22;13733;51.178;4.450;2023-06-26T12:01:42;25.80;67.10
25937;DHT22;13733;51.178;4.450;2023-06-26T12:04:12;25.80;66.30
25937;DHT22;13733;51.178;4.450;2023-06-26T12:06:39;25.80;69.20
25937;DHT22;13733;51.178;4.450;2023-06-26T12:09:07;25.60;69.80
25937;DHT22;13733;51.178;4.450;2023-06-26T12:11:37;25.50;69.40
25937;DHT22;13733;51.178;4.450;2023-06-26T12:14:04;25.80;70.00
25937;DHT22;13733;51.178;4.450;2023-06-26T12:16:30;26.60;69.40
25937;DHT22;13733;51.178;4.450;2023-06-26T12:19:03;26.60;68.20
25937;DHT22;13733;51.178;4.450;2023-06-26T12:24:08;25.60;71.50
25937;DHT22;13733;51.178;4.450;2023-06-26T12:26:35;26.50;70.10
25937;DHT22;13733;51.178;4.450;2023-06-26T12:29:10;26.90;66.30
25937;DHT22;13733;51.178;4.450;2023-06-26T12:31:43;26.70;62.60
25937;DHT22;13733;51.178;4.450;2023-06-26T12:34:10;25.80;63.20
25937;DHT22;13733;51.178;4.450;2023-06-26T12:36:45;26.10;64.00
25937;DHT22;13733;51.178;4.450;2023-06-26T12:39:11;27.50;60.00
25937;DHT22;13733;51.178;4.450;2023-06-26T12:41:54;27.90;56.80
25937;DHT22;13733;51.178;4.450;2023-06-26T12:44:21;28.00;54.90
25937;DHT22;13733;51.178;4.450;2023-06-26T12:46:49;27.10;55.80
25937;DHT22;13733;51.178;4.450;2023-06-26T12:49:16;28.10;55.20
25937;DHT22;13733;51.178;4.450;2023-06-26T12:51:42;29.10;53.00
25937;DHT22;13733;51.178;4.450;2023-06-26T12:54:08;28.70;51.50
25937;DHT22;13733;51.178;4.450;2023-06-26T12:56:34;29.00;51.00
25937;DHT22;13733;51.178;4.450;2023-06-26T12:59:00;29.80;48.50
25937;DHT22;13733;51.178;4.450;2023-06-26T13:01:26;30.10;46.50
25937;DHT22;13733;51.178;4.450;2023-06-26T13:03:54;30.60;44.60
25937;DHT22;13733;51.178;4.450;2023-06-26T13:06:20;30.70;45.10
25937;DHT22;13733;51.178;4.450;2023-06-26T13:08:47;31.00;43.30
25937;DHT22;13733;51.178;4.450;2023-06-26T13:11:13;31.40;42.60
25937;DHT22;13733;51.178;4.450;2023-06-26T13:13:38;31.00;42.40
25937;DHT22;13733;51.178;4.450;2023-06-26T13:16:04;30.00;43.10
25937;DHT22;13733;51.178;4.450;2023-06-26T13:18:30;30.10;43.40
25937;DHT22;13733;51.178;4.450;2023-06-26T13:20:56;29.60;43.40
25937;DHT22;13733;51.178;4.450;2023-06-26T13:23:27;30.00;44.20
25937;DHT22;13733;51.178;4.450;2023-06-26T13:26:04;31.00;42.00
25937;DHT22;13733;51.178;4.450;2023-06-26T13:28:30;30.40;42.20
25937;DHT22;13733;51.178;4.450;2023-06-26T13:31:05;30.40;42.20
25937;DHT22;13733;51.178;4.450;2023-06-26T13:33:44;30.60;42.20
25937;DHT22;13733;51.178;4.450;2023-06-26T13:36:10;30.20;44.30
25937;DHT22;13733;51.178;4.450;2023-06-26T13:38:36;31.00;45.50
25937;DHT22;13733;51.178;4.450;2023-06-26T13:41:02;31.30;45.30
25937;DHT22;13733;51.178;4.450;2023-06-26T13:43:29;31.50;43.10
25937;DHT22;13733;51.178;4.450;2023-06-26T13:45:55;31.30;44.10
25937;DHT22;13733;51.178;4.450;2023-06-26T13:48:21;31.80;44.30
25937;DHT22;13733;51.178;4.450;2023-06-26T13:50:47;31.80;42.90
25937;DHT22;13733;51.178;4.450;2023-06-26T13:53:13;31.90;42.70
25937;DHT22;13733;51.178;4.450;2023-06-26T13:55:40;31.50;42.80
25937;DHT22;13733;51.178;4.450;2023-06-26T13:58:07;31.30;43.50
25937;DHT22;13733;51.178;4.450;2023-06-26T14:00:34;31.20;44.20
25937;DHT22;13733;51.178;4.450;2023-06-26T14:03:01;31.10;44.20
25937;DHT22;13733;51.178;4.450;2023-06-26T14:05:29;31.10;44.50
25937;DHT22;13733;51.178;4.450;2023-06-26T14:07:55;31.10;43.90
25937;DHT22;13733;51.178;4.450;2023-06-26T14:10:21;31.40;46.60
25937;DHT22;13733;51.178;4.450;2023-06-26T14:12:47;32.00;45.60
25937;DHT22;13733;51.178;4.450;2023-06-26T14:15:13;32.80;44.30
25937;DHT22;13733;51.178;4.450;2023-06-26T14:17:39;32.30;44.70
25937;DHT22;13733;51.178;4.450;2023-06-26T14:20:08;31.80;42.90
25937;DHT22;13733;51.178;4.450;2023-06-26T14:22:42;32.30;41.00
25937;DHT22;13733;51.178;4.450;2023-06-26T14:25:09;32.20;40.90
25937;DHT22;13733;51.178;4.450;2023-06-26T14:27:35;31.30;43.60
25937;DHT22;13733;51.178;4.450;2023-06-26T14:30:02;30.60;44.80
25937;DHT22;13733;51.178;4.450;2023-06-26T14:32:28;30.40;45.60
25937;DHT22;13733;51.178;4.450;2023-06-26T14:34:54;30.40;45.60
25937;DHT22;13733;51.178;4.450;2023-06-26T14:37:20;30.60;45.80
25937;DHT22;13733;51.178;4.450;2023-06-26T14:39:46;30.80;44.50
25937;DHT22;13733;51.178;4.450;2023-06-26T14:42:12;30.60;43.70
25937;DHT22;13733;51.178;4.450;2023-06-26T14:44:37;30.50;45.00
25937;DHT22;13733;51.178;4.450;2023-06-26T14:47:03;30.10;44.70
25937;DHT22;13733;51.178;4.450;2023-06-26T14:49:30;29.30;46.50
25937;DHT22;13733;51.178;4.450;2023-06-26T14:51:55;29.40;47.20
25937;DHT22;13733;51.178;4.450;2023-06-26T14:54:21;29.80;47.10
25937;DHT22;13733;51.178;4.450;2023-06-26T14:56:47;30.00;45.30
25937;DHT22;13733;51.178;4.450;2023-06-26T14:59:13;29.90;44.70
25937;DHT22;13733;51.178;4.450;2023-06-26T15:01:39;29.70;44.20
25937;DHT22;13733;51.178;4.450;2023-06-26T15:04:06;29.20;44.70
25937;DHT22;13733;51.178;4.450;2023-06-26T15:06:32;29.30;45.70
25937;DHT22;13733;51.178;4.450;2023-06-26T15:08:58;29.60;45.30
25937;DHT22;13733;51.178;4.450;2023-06-26T15:11:25;29.30;44.20
25937;DHT22;13733;51.178;4.450;2023-06-26T15:13:50;29.50;43.70
25937;DHT22;13733;51.178;4.450;2023-06-26T15:16:16;30.10;42.30
25937;DHT22;13733;51.178;4.450;2023-06-26T15:18:43;29.70;41.90
25937;DHT22;13733;51.178;4.450;2023-06-26T15:21:09;29.50;41.70
25937;DHT22;13733;51.178;4.450;2023-06-26T15:23:35;28.90;42.70
25937;DHT22;13733;51.178;4.450;2023-06-26T15:26:00;28.80;42.20
25937;DHT22;13733;51.178;4.450;2023-06-26T15:28:26;28.40;42.60
25937;DHT22;13733;51.178;4.450;2023-06-26T15:30:52;28.70;42.70
25937;DHT22;13733;51.178;4.450;2023-06-26T15:33:18;29.70;42.20
25937;DHT22;13733;51.178;4.450;2023-06-26T15:35:43;30.50;41.00
25937;DHT22;13733;51.178;4.450;2023-06-26T15:38:10;30.20;39.70
25937;DHT22;13733;51.178;4.450;2023-06-26T15:40:36;29.10;39.30
25937;DHT22;13733;51.178;4.450;2023-06-26T15:43:02;28.60;40.80
25937;DHT22;13733;51.178;4.450;2023-06-26T15:45:29;28.10;42.40